createdAt,value
2024-05-09T00:00:35.998Z,18.10
2024-05-09T00:01:10.217Z,18.10
2024-05-09T00:01:41.072Z,18.11
2024-05-09T00:02:11.963Z,18.02
2024-05-09T00:02:43.140Z,18.07
2024-05-09T00:03:14.086Z,18.10
2024-05-09T00:03:45.782Z,18.12
2024-05-09T00:04:16.638Z,18.11
2024-05-09T00:04:47.542Z,18.12
2024-05-09T00:05:18.433Z,18.11
2024-05-09T00:05:49.325Z,18.10
2024-05-09T00:06:20.165Z,18.10
2024-05-09T00:06:50.965Z,18.13
2024-05-09T00:07:21.759Z,18.11
2024-05-09T00:07:52.612Z,18.10
2024-05-09T00:08:23.622Z,18.14
2024-05-09T00:08:54.482Z,18.15
2024-05-09T00:09:25.272Z,18.12
2024-05-09T00:09:56.070Z,18.15
2024-05-09T00:10:35.054Z,18.13
2024-05-09T00:11:08.866Z,18.15
2024-05-09T00:11:39.759Z,18.08
2024-05-09T00:12:10.742Z,18.10
2024-05-09T00:12:41.616Z,18.16
2024-05-09T00:13:12.393Z,18.09
2024-05-09T00:13:43.284Z,18.08
2024-05-09T00:14:14.145Z,17.97
2024-05-09T00:14:44.946Z,18.01
2024-05-09T00:15:15.728Z,18.03
2024-05-09T00:15:46.510Z,17.97
2024-05-09T00:16:17.304Z,18.04
2024-05-09T00:16:48.662Z,18.05
2024-05-09T00:17:19.592Z,18.01
2024-05-09T00:17:50.613Z,18.00
2024-05-09T00:18:21.791Z,18.03
2024-05-09T00:18:52.754Z,18.03
2024-05-09T00:19:23.689Z,18.02
2024-05-09T00:19:54.550Z,18.05
2024-05-09T00:20:33.224Z,18.00
2024-05-09T00:21:09.610Z,17.97
2024-05-09T00:21:43.852Z,17.99
2024-05-09T00:22:14.667Z,17.93
2024-05-09T00:22:45.468Z,17.97
2024-05-09T00:23:16.392Z,18.00
2024-05-09T00:23:47.240Z,17.98
2024-05-09T00:24:18.039Z,18.00
2024-05-09T00:24:48.871Z,18.03
2024-05-09T00:25:19.665Z,18.05
2024-05-09T00:25:50.511Z,18.09
2024-05-09T00:26:23.008Z,18.06
2024-05-09T00:26:53.922Z,18.05
2024-05-09T00:27:24.742Z,18.02
2024-05-09T00:27:55.550Z,17.98
2024-05-09T00:28:26.337Z,18.00
2024-05-09T00:28:57.211Z,18.05
2024-05-09T00:29:28.142Z,18.02
2024-05-09T00:29:58.998Z,17.99
2024-05-09T00:30:34.212Z,18.01
2024-05-09T00:31:07.210Z,18.04
2024-05-09T00:31:38.017Z,18.04
2024-05-09T00:32:08.940Z,17.98
2024-05-09T00:32:39.902Z,17.97
2024-05-09T00:33:11.740Z,17.94
2024-05-09T00:33:42.940Z,17.93
2024-05-09T00:34:14.040Z,17.99
2024-05-09T00:34:45.182Z,17.99
2024-05-09T00:35:16.174Z,17.88
2024-05-09T00:35:47.037Z,17.90
2024-05-09T00:36:18.092Z,17.92
2024-05-09T00:36:48.913Z,17.89
2024-05-09T00:37:20.831Z,17.90
2024-05-09T00:37:51.762Z,17.90
2024-05-09T00:38:22.687Z,17.96
2024-05-09T00:38:53.540Z,17.98
2024-05-09T00:39:24.370Z,17.92
2024-05-09T00:39:55.159Z,17.93
2024-05-09T00:40:35.703Z,17.99
2024-05-09T00:41:10.692Z,18.00
2024-05-09T00:41:41.640Z,18.01
2024-05-09T00:42:12.479Z,17.97
2024-05-09T00:42:46.013Z,17.95
2024-05-09T00:43:16.869Z,17.97
2024-05-09T00:43:47.744Z,17.95
2024-05-09T00:44:18.576Z,18.01
2024-05-09T00:44:49.480Z,18.00
2024-05-09T00:45:20.274Z,17.98
2024-05-09T00:45:52.588Z,17.98
2024-05-09T00:46:23.378Z,17.90
2024-05-09T00:46:55.143Z,17.93
2024-05-09T00:47:26.115Z,17.92
2024-05-09T00:47:59.089Z,17.81
2024-05-09T00:48:30.664Z,17.88
2024-05-09T00:49:01.886Z,17.93
2024-05-09T00:49:32.963Z,17.94
2024-05-09T00:50:05.503Z,17.90
2024-05-09T00:50:42.623Z,17.96
2024-05-09T00:51:13.723Z,17.95
2024-05-09T00:51:44.681Z,18.00
2024-05-09T00:52:16.261Z,17.88
2024-05-09T00:52:48.219Z,17.93
2024-05-09T00:53:19.310Z,17.87
2024-05-09T00:53:50.184Z,17.88
2024-05-09T00:54:21.699Z,17.85
2024-05-09T00:54:54.748Z,17.89
2024-05-09T00:55:25.736Z,17.90
2024-05-09T00:55:56.668Z,17.90
2024-05-09T00:56:27.940Z,17.95
2024-05-09T00:57:01.037Z,17.96
2024-05-09T00:57:31.881Z,17.90
2024-05-09T00:58:04.611Z,17.95
2024-05-09T00:58:35.683Z,17.96
2024-05-09T00:59:07.079Z,17.98
2024-05-09T00:59:38.225Z,17.87
2024-05-09T01:00:18.457Z,17.88
2024-05-09T01:00:59.421Z,17.83
2024-05-09T01:01:30.783Z,17.83
2024-05-09T01:02:01.810Z,17.85
2024-05-09T01:02:32.818Z,17.90
2024-05-09T01:03:04.231Z,17.90
2024-05-09T01:03:35.403Z,17.98
2024-05-09T01:04:07.027Z,17.96
2024-05-09T01:04:37.965Z,17.94
2024-05-09T01:05:08.961Z,17.95
2024-05-09T01:05:40.441Z,17.95
2024-05-09T01:06:11.617Z,17.94
2024-05-09T01:06:42.515Z,17.95
2024-05-09T01:07:13.389Z,17.95
2024-05-09T01:07:44.259Z,17.88
2024-05-09T01:08:15.187Z,17.88
2024-05-09T01:08:46.560Z,17.86
2024-05-09T01:09:17.386Z,17.90
2024-05-09T01:09:48.180Z,17.88
2024-05-09T01:10:27.555Z,17.86
2024-05-09T01:11:03.082Z,17.84
2024-05-09T01:11:38.007Z,17.84
2024-05-09T01:12:09.099Z,17.79
2024-05-09T01:12:40.251Z,17.81
2024-05-09T01:13:11.440Z,17.72
2024-05-09T01:13:43.785Z,17.72
2024-05-09T01:14:14.744Z,17.74
2024-05-09T01:14:45.610Z,17.76
2024-05-09T01:15:16.519Z,17.78
2024-05-09T01:15:48.983Z,17.75
2024-05-09T01:16:19.888Z,17.82
2024-05-09T01:16:50.699Z,17.78
2024-05-09T01:17:21.721Z,17.81
2024-05-09T01:17:54.295Z,17.76
2024-05-09T01:18:26.605Z,17.71
2024-05-09T01:18:58.091Z,17.74
2024-05-09T01:19:29.759Z,17.83
2024-05-09T01:20:00.712Z,17.85
2024-05-09T01:20:39.934Z,17.90
2024-05-09T01:21:14.278Z,17.91
2024-05-09T01:21:45.176Z,17.93
2024-05-09T01:22:15.965Z,17.90
2024-05-09T01:22:46.908Z,17.89
2024-05-09T01:23:17.723Z,17.76
2024-05-09T01:23:48.531Z,17.71
2024-05-09T01:24:19.388Z,17.78
2024-05-09T01:24:50.927Z,17.79
2024-05-09T01:25:21.755Z,17.74
2024-05-09T01:25:52.572Z,17.72
2024-05-09T01:26:23.431Z,17.71
2024-05-09T01:26:54.280Z,17.76
2024-05-09T01:27:25.078Z,17.77
2024-05-09T01:27:55.923Z,17.78
2024-05-09T01:28:26.720Z,17.79
2024-05-09T01:28:57.581Z,17.73
2024-05-09T01:29:28.512Z,17.73
2024-05-09T01:29:59.626Z,17.70
2024-05-09T01:30:34.564Z,17.75
2024-05-09T01:31:07.680Z,17.72
2024-05-09T01:31:38.485Z,17.71
2024-05-09T01:32:09.402Z,17.73
2024-05-09T01:32:40.470Z,17.76
2024-05-09T01:33:12.532Z,17.68
2024-05-09T01:33:44.216Z,17.75
2024-05-09T01:34:15.230Z,17.69
2024-05-09T01:34:46.116Z,17.66
2024-05-09T01:35:22.272Z,17.70
2024-05-09T01:35:53.172Z,17.72
2024-05-09T01:36:24.007Z,17.77
2024-05-09T01:36:54.923Z,17.80
2024-05-09T01:37:25.747Z,17.80
2024-05-09T01:37:56.591Z,17.79
2024-05-09T01:38:27.423Z,17.83
2024-05-09T01:38:58.207Z,17.81
2024-05-09T01:39:28.990Z,17.84
2024-05-09T01:39:59.777Z,17.82
2024-05-09T01:41:03.761Z,17.84
2024-05-09T01:41:37.565Z,17.83
2024-05-09T01:42:08.403Z,17.87
2024-05-09T01:42:39.215Z,17.85
2024-05-09T01:43:11.249Z,17.88
2024-05-09T01:43:42.904Z,17.85
2024-05-09T01:44:13.878Z,17.82
2024-05-09T01:44:45.742Z,17.79
2024-05-09T01:45:17.386Z,17.83
2024-05-09T01:45:48.235Z,17.82
2024-05-09T01:46:19.067Z,17.85
2024-05-09T01:46:49.951Z,17.76
2024-05-09T01:47:20.939Z,17.79
2024-05-09T01:47:52.076Z,17.80
2024-05-09T01:48:23.176Z,17.77
2024-05-09T01:48:54.131Z,17.65
2024-05-09T01:49:25.193Z,17.70
2024-05-09T01:49:56.139Z,17.76
2024-05-09T01:50:36.552Z,17.76
2024-05-09T01:51:11.483Z,17.77
2024-05-09T01:51:42.362Z,17.82
2024-05-09T01:52:13.243Z,17.83
2024-05-09T01:52:44.075Z,17.83
2024-05-09T01:53:15.449Z,17.82
2024-05-09T01:53:46.626Z,17.74
2024-05-09T01:54:17.415Z,17.72
2024-05-09T01:54:48.209Z,17.78
2024-05-09T01:55:18.996Z,17.77
2024-05-09T01:55:49.817Z,17.73
2024-05-09T01:56:20.709Z,17.71
2024-05-09T01:56:51.512Z,17.70
2024-05-09T01:57:22.357Z,17.68
2024-05-09T01:57:53.158Z,17.70
2024-05-09T01:58:24.138Z,17.72
2024-05-09T01:58:55.025Z,17.74
2024-05-09T01:59:25.997Z,17.73
2024-05-09T01:59:56.836Z,17.74
2024-05-09T02:00:36.144Z,17.72
2024-05-09T02:01:10.615Z,17.69
2024-05-09T02:01:56.138Z,17.71
2024-05-09T02:02:28.550Z,17.73
2024-05-09T02:02:59.607Z,17.68
2024-05-09T02:03:30.641Z,17.68
2024-05-09T02:04:01.885Z,17.72
2024-05-09T02:04:33.088Z,17.68
2024-05-09T02:05:04.481Z,17.71
2024-05-09T02:05:35.412Z,17.71
2024-05-09T02:06:06.573Z,17.70
2024-05-09T02:06:40.910Z,17.71
2024-05-09T02:07:11.802Z,17.72
2024-05-09T02:07:42.651Z,17.56
2024-05-09T02:08:14.924Z,17.60
2024-05-09T02:08:45.864Z,17.68
2024-05-09T02:09:16.726Z,17.69
2024-05-09T02:09:50.769Z,17.62
2024-05-09T02:10:26.499Z,17.63
2024-05-09T02:11:03.274Z,17.66
2024-05-09T02:11:42.734Z,17.60
2024-05-09T02:12:13.827Z,17.56
2024-05-09T02:12:44.731Z,17.58
2024-05-09T02:13:16.078Z,17.63
2024-05-09T02:13:47.192Z,17.62
2024-05-09T02:14:19.241Z,17.66
2024-05-09T02:14:50.872Z,17.67
2024-05-09T02:15:21.657Z,17.68
2024-05-09T02:15:52.615Z,17.60
2024-05-09T02:16:23.453Z,17.63
2024-05-09T02:16:54.323Z,17.62
2024-05-09T02:17:25.308Z,17.52
2024-05-09T02:17:56.365Z,17.53
2024-05-09T02:18:27.458Z,17.46
2024-05-09T02:18:58.533Z,17.53
2024-05-09T02:19:29.484Z,17.57
2024-05-09T02:20:00.393Z,17.56
2024-05-09T02:20:36.010Z,17.61
2024-05-09T02:21:08.152Z,17.62
2024-05-09T02:21:39.347Z,17.61
2024-05-09T02:22:10.177Z,17.52
2024-05-09T02:22:40.992Z,17.53
2024-05-09T02:23:12.913Z,17.61
2024-05-09T02:23:43.953Z,17.62
2024-05-09T02:24:14.785Z,17.60
2024-05-09T02:24:45.586Z,17.59
2024-05-09T02:25:16.512Z,17.65
2024-05-09T02:25:47.322Z,17.66
2024-05-09T02:26:18.179Z,17.64
2024-05-09T02:26:48.993Z,17.54
2024-05-09T02:27:19.789Z,17.58
2024-05-09T02:27:50.595Z,17.55
2024-05-09T02:28:21.382Z,17.53
2024-05-09T02:28:52.620Z,17.51
2024-05-09T02:29:23.433Z,17.47
2024-05-09T02:29:54.237Z,17.51
2024-05-09T02:30:35.079Z,17.41
2024-05-09T02:31:13.184Z,17.45
2024-05-09T02:31:44.258Z,17.44
2024-05-09T02:32:15.246Z,17.44
2024-05-09T02:32:46.453Z,17.48
2024-05-09T02:33:17.500Z,17.46
2024-05-09T02:33:48.653Z,17.45
2024-05-09T02:34:19.900Z,17.46
2024-05-09T02:34:50.770Z,17.45
2024-05-09T02:35:21.680Z,17.49
2024-05-09T02:35:52.538Z,17.55
2024-05-09T02:36:23.559Z,17.60
2024-05-09T02:36:55.066Z,17.62
2024-05-09T02:37:25.872Z,17.53
2024-05-09T02:37:56.999Z,17.52
2024-05-09T02:38:27.834Z,17.50
2024-05-09T02:38:58.654Z,17.50
2024-05-09T02:39:29.444Z,17.54
2024-05-09T02:40:00.235Z,17.57
2024-05-09T02:40:37.414Z,17.48
2024-05-09T02:41:10.039Z,17.44
2024-05-09T02:41:40.878Z,17.48
2024-05-09T02:42:11.676Z,17.48
2024-05-09T02:42:42.478Z,17.46
2024-05-09T02:43:13.443Z,17.50
2024-05-09T02:43:44.280Z,17.48
2024-05-09T02:44:15.149Z,17.49
2024-05-09T02:44:46.060Z,17.50
2024-05-09T02:45:16.848Z,17.48
2024-05-09T02:45:47.636Z,17.43
2024-05-09T02:46:18.457Z,17.42
2024-05-09T02:46:49.318Z,17.43
2024-05-09T02:47:20.342Z,17.42
2024-05-09T02:47:51.362Z,17.45
2024-05-09T02:48:22.622Z,17.39
2024-05-09T02:48:53.654Z,17.37
2024-05-09T02:49:24.728Z,17.41
2024-05-09T02:49:55.633Z,17.41
2024-05-09T02:50:34.196Z,17.47
2024-05-09T02:51:09.489Z,17.46
2024-05-09T02:51:40.379Z,17.39
2024-05-09T02:52:11.164Z,17.33
2024-05-09T02:52:41.970Z,17.33
2024-05-09T02:53:13.317Z,17.42
2024-05-09T02:53:44.354Z,17.38
2024-05-09T02:54:15.220Z,17.35
2024-05-09T02:54:46.007Z,17.32
2024-05-09T02:55:16.796Z,17.34
2024-05-09T02:55:47.645Z,17.38
2024-05-09T02:56:18.495Z,17.45
2024-05-09T02:56:49.289Z,17.42
2024-05-09T02:57:20.087Z,17.41
2024-05-09T02:57:50.890Z,17.44
2024-05-09T02:58:21.672Z,17.35
2024-05-09T02:58:52.568Z,17.35
2024-05-09T02:59:23.477Z,17.41
2024-05-09T02:59:54.368Z,17.39
2024-05-09T03:00:34.440Z,17.33
2024-05-09T03:01:09.765Z,17.32
2024-05-09T03:01:40.700Z,17.32
2024-05-09T03:02:12.610Z,17.23
2024-05-09T03:02:43.630Z,17.28
2024-05-09T03:03:15.748Z,17.21
2024-05-09T03:03:49.230Z,17.22
2024-05-09T03:04:20.209Z,17.27
2024-05-09T03:04:51.146Z,17.22
2024-05-09T03:05:22.145Z,17.33
2024-05-09T03:05:53.034Z,17.32
2024-05-09T03:06:23.835Z,17.29
2024-05-09T03:06:54.618Z,17.33
2024-05-09T03:07:25.421Z,17.24
2024-05-09T03:07:56.270Z,17.21
2024-05-09T03:08:27.134Z,17.29
2024-05-09T03:08:57.992Z,17.23
2024-05-09T03:09:28.796Z,17.23
2024-05-09T03:09:59.593Z,17.21
2024-05-09T03:10:35.691Z,17.18
2024-05-09T03:11:08.753Z,17.20
2024-05-09T03:11:39.704Z,17.24
2024-05-09T03:12:10.735Z,17.24
2024-05-09T03:12:41.639Z,17.20
2024-05-09T03:13:14.889Z,17.18
2024-05-09T03:13:46.805Z,17.23
2024-05-09T03:14:18.450Z,17.23
2024-05-09T03:14:49.717Z,17.19
2024-05-09T03:15:23.138Z,17.21
2024-05-09T03:15:53.934Z,17.28
2024-05-09T03:16:24.712Z,17.19
2024-05-09T03:16:55.575Z,17.21
2024-05-09T03:17:26.563Z,17.14
2024-05-09T03:17:58.971Z,17.08
2024-05-09T03:18:30.055Z,17.03
2024-05-09T03:19:01.012Z,17.01
2024-05-09T03:19:34.314Z,17.07
2024-05-09T03:20:11.513Z,17.07
2024-05-09T03:20:45.536Z,17.07
2024-05-09T03:21:16.428Z,17.07
2024-05-09T03:21:47.272Z,17.07
2024-05-09T03:22:18.073Z,17.02
2024-05-09T03:22:49.008Z,17.10
2024-05-09T03:23:19.897Z,17.15
2024-05-09T03:23:50.782Z,17.10
2024-05-09T03:24:21.584Z,17.10
2024-05-09T03:24:52.448Z,17.06
2024-05-09T03:25:23.241Z,17.07
2024-05-09T03:25:54.221Z,17.04
2024-05-09T03:26:25.158Z,17.09
2024-05-09T03:26:56.090Z,17.11
2024-05-09T03:27:26.879Z,17.02
2024-05-09T03:27:58.075Z,17.10
2024-05-09T03:28:28.859Z,17.10
2024-05-09T03:28:59.729Z,17.14
2024-05-09T03:29:30.696Z,17.12
2024-05-09T03:30:01.594Z,17.08
2024-05-09T03:30:39.781Z,17.09
2024-05-09T03:31:13.286Z,17.16
2024-05-09T03:31:44.300Z,17.01
2024-05-09T03:32:15.218Z,17.09
2024-05-09T03:32:46.283Z,17.17
2024-05-09T03:33:18.651Z,17.18
2024-05-09T03:33:50.952Z,17.24
2024-05-09T03:34:21.814Z,17.09
2024-05-09T03:34:52.645Z,17.13
2024-05-09T03:35:23.793Z,17.15
2024-05-09T03:35:54.743Z,17.17
2024-05-09T03:36:26.112Z,17.19
2024-05-09T03:36:56.896Z,17.18
2024-05-09T03:37:27.702Z,17.20
2024-05-09T03:37:58.550Z,17.17
2024-05-09T03:38:29.664Z,17.13
2024-05-09T03:39:00.566Z,17.15
2024-05-09T03:39:31.988Z,17.12
2024-05-09T03:40:03.092Z,17.16
2024-05-09T03:40:33.909Z,17.10
2024-05-09T03:41:04.780Z,17.10
2024-05-09T03:41:35.859Z,17.06
2024-05-09T03:42:07.034Z,17.15
2024-05-09T03:42:40.529Z,17.20
2024-05-09T03:43:12.148Z,17.11
2024-05-09T03:43:43.143Z,17.05
2024-05-09T03:44:13.984Z,17.10
2024-05-09T03:44:44.812Z,17.00
2024-05-09T03:45:15.815Z,16.95
2024-05-09T03:45:47.950Z,16.94
2024-05-09T03:46:18.747Z,17.03
2024-05-09T03:46:49.823Z,17.05
2024-05-09T03:47:20.792Z,17.10
2024-05-09T03:47:52.094Z,17.02
2024-05-09T03:48:23.532Z,17.02
2024-05-09T03:48:54.751Z,16.99
2024-05-09T03:49:25.904Z,16.99
2024-05-09T03:49:56.896Z,16.87
2024-05-09T03:50:33.713Z,16.93
2024-05-09T03:51:06.663Z,16.95
2024-05-09T03:51:37.507Z,16.99
2024-05-09T03:52:08.295Z,16.98
2024-05-09T03:52:39.092Z,17.02
2024-05-09T03:53:11.430Z,16.90
2024-05-09T03:53:42.455Z,16.92
2024-05-09T03:54:13.351Z,16.97
2024-05-09T03:54:47.891Z,16.98
2024-05-09T03:55:18.801Z,17.01
2024-05-09T03:55:49.656Z,16.89
2024-05-09T03:56:20.522Z,16.89
2024-05-09T03:56:51.426Z,16.89
2024-05-09T03:57:22.221Z,16.98
2024-05-09T03:57:53.039Z,17.02
2024-05-09T03:58:23.856Z,17.08
2024-05-09T03:58:55.048Z,16.98
2024-05-09T03:59:26.030Z,16.97
2024-05-09T03:59:56.864Z,17.01
2024-05-09T04:00:35.241Z,16.89
2024-05-09T04:01:10.631Z,16.89
2024-05-09T04:01:41.562Z,16.91
2024-05-09T04:02:12.605Z,16.94
2024-05-09T04:02:46.689Z,16.95
2024-05-09T04:03:18.022Z,16.96
2024-05-09T04:03:49.266Z,17.03
2024-05-09T04:04:20.180Z,17.05
2024-05-09T04:04:51.235Z,17.08
2024-05-09T04:05:22.439Z,17.05
2024-05-09T04:05:53.283Z,17.04
2024-05-09T04:06:25.541Z,17.06
2024-05-09T04:06:56.324Z,17.08
2024-05-09T04:07:27.179Z,17.10
2024-05-09T04:07:58.060Z,17.05
2024-05-09T04:08:29.025Z,17.06
2024-05-09T04:08:59.843Z,17.05
2024-05-09T04:09:30.641Z,16.92
2024-05-09T04:10:01.430Z,16.85
2024-05-09T04:10:34.135Z,16.89
2024-05-09T04:11:06.062Z,16.90
2024-05-09T04:11:37.124Z,16.95
2024-05-09T04:12:08.011Z,16.95
2024-05-09T04:12:38.911Z,16.99
2024-05-09T04:13:09.868Z,16.98
2024-05-09T04:13:40.728Z,16.98
2024-05-09T04:14:11.523Z,16.90
2024-05-09T04:14:42.394Z,16.96
2024-05-09T04:15:14.011Z,16.99
2024-05-09T04:15:44.808Z,16.94
2024-05-09T04:16:15.640Z,16.93
2024-05-09T04:16:46.470Z,16.95
2024-05-09T04:17:17.365Z,16.88
2024-05-09T04:17:50.304Z,16.92
2024-05-09T04:18:21.483Z,16.91
2024-05-09T04:18:52.442Z,16.82
2024-05-09T04:19:23.402Z,16.92
2024-05-09T04:19:54.729Z,16.98
2024-05-09T04:20:35.972Z,16.95
2024-05-09T04:21:10.378Z,16.97
2024-05-09T04:21:41.275Z,16.98
2024-05-09T04:22:12.150Z,16.98
2024-05-09T04:22:42.965Z,17.03
2024-05-09T04:23:14.498Z,17.10
2024-05-09T04:23:45.650Z,17.10
2024-05-09T04:24:16.470Z,17.06
2024-05-09T04:24:47.573Z,17.06
2024-05-09T04:25:18.374Z,17.09
2024-05-09T04:25:49.266Z,17.14
2024-05-09T04:26:20.129Z,17.16
2024-05-09T04:26:50.957Z,17.14
2024-05-09T04:27:21.814Z,17.19
2024-05-09T04:27:54.677Z,17.20
2024-05-09T04:28:25.540Z,17.21
2024-05-09T04:28:56.349Z,17.23
2024-05-09T04:29:27.268Z,17.27
2024-05-09T04:29:58.141Z,17.17
2024-05-09T04:30:36.646Z,17.18
2024-05-09T04:31:10.488Z,17.14
2024-05-09T04:31:41.290Z,17.14
2024-05-09T04:32:12.311Z,17.07
2024-05-09T04:32:43.275Z,16.96
2024-05-09T04:33:15.035Z,17.06
2024-05-09T04:33:46.622Z,17.10
2024-05-09T04:34:17.997Z,17.13
2024-05-09T04:34:48.848Z,17.17
2024-05-09T04:35:21.347Z,17.20
2024-05-09T04:35:52.258Z,17.27
2024-05-09T04:36:23.298Z,17.25
2024-05-09T04:36:54.141Z,17.20
2024-05-09T04:37:25.264Z,17.21
2024-05-09T04:37:56.114Z,17.21
2024-05-09T04:38:28.889Z,17.17
2024-05-09T04:38:59.740Z,17.22
2024-05-09T04:39:30.537Z,17.25
2024-05-09T04:40:01.333Z,17.26
2024-05-09T04:40:35.389Z,17.32
2024-05-09T04:41:07.859Z,17.36
2024-05-09T04:41:38.837Z,17.38
2024-05-09T04:42:09.693Z,17.21
2024-05-09T04:42:40.639Z,17.30
2024-05-09T04:43:16.234Z,17.25
2024-05-09T04:43:49.702Z,17.36
2024-05-09T04:44:20.595Z,17.40
2024-05-09T04:44:52.985Z,17.39
2024-05-09T04:45:24.882Z,17.46
2024-05-09T04:45:55.679Z,17.46
2024-05-09T04:46:26.467Z,17.47
2024-05-09T04:46:57.294Z,17.51
2024-05-09T04:47:28.398Z,17.48
2024-05-09T04:47:59.982Z,17.42
2024-05-09T04:48:33.903Z,17.44
2024-05-09T04:49:04.934Z,17.42
2024-05-09T04:49:36.005Z,17.44
2024-05-09T04:50:11.385Z,17.44
2024-05-09T04:50:42.686Z,17.43
2024-05-09T04:51:13.676Z,17.46
2024-05-09T04:51:44.503Z,17.47
2024-05-09T04:52:15.294Z,17.48
2024-05-09T04:52:46.205Z,17.44
2024-05-09T04:53:17.394Z,17.43
2024-05-09T04:53:48.451Z,17.46
2024-05-09T04:54:29.978Z,17.49
2024-05-09T04:55:06.752Z,17.44
2024-05-09T04:55:38.087Z,17.51
2024-05-09T04:56:08.984Z,17.62
2024-05-09T04:56:39.802Z,17.64
2024-05-09T04:57:10.603Z,17.57
2024-05-09T04:57:41.474Z,17.61
2024-05-09T04:58:12.447Z,17.53
2024-05-09T04:58:43.309Z,17.53
2024-05-09T04:59:14.246Z,17.46
2024-05-09T04:59:45.081Z,17.51
2024-05-09T05:00:21.852Z,17.57
2024-05-09T05:00:59.529Z,17.58
2024-05-09T05:01:30.460Z,17.64
2024-05-09T05:02:01.389Z,17.67
2024-05-09T05:02:32.370Z,17.66
2024-05-09T05:03:05.113Z,17.71
2024-05-09T05:03:36.185Z,17.68
2024-05-09T05:04:07.199Z,17.67
2024-05-09T05:04:38.222Z,17.69
2024-05-09T05:05:09.388Z,17.71
2024-05-09T05:05:40.712Z,17.74
2024-05-09T05:06:11.930Z,17.76
2024-05-09T05:06:42.737Z,17.77
2024-05-09T05:07:13.533Z,17.72
2024-05-09T05:07:44.377Z,17.74
2024-05-09T05:08:17.500Z,17.77
2024-05-09T05:08:49.324Z,17.73
2024-05-09T05:09:20.163Z,17.68
2024-05-09T05:09:52.050Z,17.69
2024-05-09T05:10:32.906Z,17.77
2024-05-09T05:11:06.483Z,17.84
2024-05-09T05:11:37.389Z,17.90
2024-05-09T05:12:28.334Z,17.93
2024-05-09T05:13:18.992Z,18.02
2024-05-09T05:13:50.579Z,17.95
2024-05-09T05:14:21.393Z,17.96
2024-05-09T05:14:52.326Z,17.98
2024-05-09T05:15:23.125Z,17.96
2024-05-09T05:15:57.862Z,17.90
2024-05-09T05:16:29.218Z,18.00
2024-05-09T05:17:00.044Z,18.04
2024-05-09T05:17:31.079Z,18.10
2024-05-09T05:18:02.181Z,18.12
2024-05-09T05:18:33.173Z,18.00
2024-05-09T05:19:05.855Z,18.00
2024-05-09T05:19:38.142Z,18.07
2024-05-09T05:20:14.936Z,18.11
2024-05-09T05:20:46.218Z,18.12
2024-05-09T05:21:17.214Z,18.15
2024-05-09T05:21:48.035Z,18.13
2024-05-09T05:22:18.842Z,18.08
2024-05-09T05:22:49.744Z,18.06
2024-05-09T05:23:21.783Z,18.17
2024-05-09T05:23:52.684Z,18.29
2024-05-09T05:24:23.487Z,18.33
2024-05-09T05:24:54.277Z,18.31
2024-05-09T05:25:25.122Z,18.30
2024-05-09T05:25:56.164Z,18.36
2024-05-09T05:26:27.067Z,18.32
2024-05-09T05:26:57.883Z,18.36
2024-05-09T05:27:29.812Z,18.36
2024-05-09T05:28:00.661Z,18.35
2024-05-09T05:28:31.445Z,18.36
2024-05-09T05:29:02.258Z,18.41
2024-05-09T05:29:33.100Z,18.42
2024-05-09T05:30:07.377Z,18.47
2024-05-09T05:30:40.527Z,18.52
2024-05-09T05:31:11.555Z,18.53
2024-05-09T05:31:42.414Z,18.53
2024-05-09T05:32:13.472Z,18.53
2024-05-09T05:32:44.540Z,18.56
2024-05-09T05:33:19.468Z,18.53
2024-05-09T05:33:50.735Z,18.53
2024-05-09T05:34:21.598Z,18.47
2024-05-09T05:34:52.444Z,18.50
2024-05-09T05:35:23.407Z,18.52
2024-05-09T05:35:54.747Z,18.54
2024-05-09T05:36:25.533Z,18.54
2024-05-09T05:36:56.339Z,18.54
2024-05-09T05:37:27.123Z,18.54
2024-05-09T05:37:57.931Z,18.55
2024-05-09T05:38:28.935Z,18.62
2024-05-09T05:38:59.742Z,18.65
2024-05-09T05:39:30.554Z,18.70
2024-05-09T05:40:01.345Z,18.73
2024-05-09T05:40:36.583Z,18.72
2024-05-09T05:41:09.242Z,18.62
2024-05-09T05:41:40.106Z,18.60
2024-05-09T05:42:10.950Z,18.69
2024-05-09T05:42:42.074Z,18.63
2024-05-09T05:43:16.963Z,18.67
2024-05-09T05:43:47.914Z,18.64
2024-05-09T05:44:18.800Z,18.66
2024-05-09T05:44:49.600Z,18.71
2024-05-09T05:45:20.468Z,18.70
2024-05-09T05:45:51.247Z,18.72
2024-05-09T05:46:22.128Z,18.72
2024-05-09T05:46:52.977Z,18.66
2024-05-09T05:47:23.973Z,18.56
2024-05-09T05:47:55.245Z,18.62
2024-05-09T05:48:26.412Z,18.59
2024-05-09T05:48:57.321Z,18.62
2024-05-09T05:49:28.281Z,18.71
2024-05-09T05:49:59.204Z,18.66
2024-05-09T05:50:35.548Z,18.72
2024-05-09T05:51:08.433Z,18.75
2024-05-09T05:51:39.297Z,18.80
2024-05-09T05:52:11.198Z,18.86
2024-05-09T05:52:42.357Z,18.77
2024-05-09T05:53:13.299Z,18.82
2024-05-09T05:53:44.327Z,18.85
2024-05-09T05:54:15.184Z,18.75
2024-05-09T05:54:50.584Z,18.69
2024-05-09T05:55:21.429Z,18.74
2024-05-09T05:55:52.392Z,18.69
2024-05-09T05:56:23.295Z,18.72
2024-05-09T05:56:54.098Z,18.74
2024-05-09T05:57:24.893Z,18.75
2024-05-09T05:57:55.675Z,18.64
2024-05-09T05:58:26.466Z,18.65
2024-05-09T05:58:57.319Z,18.70
2024-05-09T05:59:28.254Z,18.65
2024-05-09T05:59:59.158Z,18.69
2024-05-09T06:00:37.603Z,18.76
2024-05-09T06:01:10.486Z,18.81
2024-05-09T06:01:41.302Z,18.79
2024-05-09T06:02:14.914Z,18.73
2024-05-09T06:02:45.883Z,18.64
2024-05-09T06:03:16.765Z,18.53
2024-05-09T06:03:47.815Z,18.55
2024-05-09T06:04:18.675Z,18.59
2024-05-09T06:04:49.610Z,18.49
2024-05-09T06:05:20.630Z,18.59
2024-05-09T06:05:51.557Z,18.52
2024-05-09T06:06:22.424Z,18.46
2024-05-09T06:06:53.233Z,18.44
2024-05-09T06:07:24.041Z,18.49
2024-05-09T06:07:54.857Z,18.52
2024-05-09T06:08:28.029Z,18.50
2024-05-09T06:09:00.775Z,18.45
2024-05-09T06:09:31.578Z,18.46
2024-05-09T06:10:03.910Z,18.45
2024-05-09T06:10:39.280Z,18.54
2024-05-09T06:11:11.776Z,18.61
2024-05-09T06:11:42.788Z,18.64
2024-05-09T06:12:13.916Z,18.65
2024-05-09T06:12:44.746Z,18.63
2024-05-09T06:13:15.600Z,18.59
2024-05-09T06:13:46.507Z,18.60
2024-05-09T06:14:17.446Z,18.63
2024-05-09T06:14:48.278Z,18.67
2024-05-09T06:15:19.078Z,18.59
2024-05-09T06:15:49.871Z,18.60
2024-05-09T06:16:20.784Z,18.65
2024-05-09T06:16:52.160Z,18.69
2024-05-09T06:17:23.893Z,18.73
2024-05-09T06:17:55.034Z,18.66
2024-05-09T06:18:26.579Z,18.64
2024-05-09T06:18:57.635Z,18.67
2024-05-09T06:19:28.717Z,18.61
2024-05-09T06:19:59.654Z,18.64
2024-05-09T06:20:35.376Z,18.64
2024-05-09T06:21:08.473Z,18.64
2024-05-09T06:21:39.328Z,18.58
2024-05-09T06:22:10.240Z,18.56
2024-05-09T06:22:41.033Z,18.55
2024-05-09T06:23:13.381Z,18.53
2024-05-09T06:23:48.201Z,18.47
2024-05-09T06:24:19.017Z,18.49
2024-05-09T06:24:49.815Z,18.45
2024-05-09T06:25:20.642Z,18.50
2024-05-09T06:25:51.578Z,18.58
2024-05-09T06:26:22.507Z,18.54
2024-05-09T06:26:53.365Z,18.56
2024-05-09T06:27:24.157Z,18.54
2024-05-09T06:27:54.954Z,18.59
2024-05-09T06:28:25.775Z,18.62
2024-05-09T06:28:56.804Z,18.65
2024-05-09T06:29:27.727Z,18.65
2024-05-09T06:29:58.633Z,18.70
2024-05-09T06:30:38.275Z,18.64
2024-05-09T06:31:11.627Z,18.64
2024-05-09T06:31:42.784Z,18.49
2024-05-09T06:32:14.420Z,18.45
2024-05-09T06:32:45.427Z,18.60
2024-05-09T06:33:16.925Z,18.69
2024-05-09T06:33:48.087Z,18.75
2024-05-09T06:34:19.162Z,18.75
2024-05-09T06:34:50.183Z,18.77
2024-05-09T06:35:21.186Z,18.79
2024-05-09T06:35:56.122Z,18.83
2024-05-09T06:36:27.002Z,18.83
2024-05-09T06:36:57.786Z,18.85
2024-05-09T06:37:28.595Z,18.89
2024-05-09T06:37:59.492Z,18.94
2024-05-09T06:38:31.649Z,18.96
2024-05-09T06:39:02.587Z,18.87
2024-05-09T06:39:33.419Z,18.87
2024-05-09T06:40:07.175Z,18.93
2024-05-09T06:40:40.415Z,18.98
2024-05-09T06:41:12.977Z,19.09
2024-05-09T06:41:43.942Z,19.07
2024-05-09T06:42:14.802Z,19.14
2024-05-09T06:42:45.598Z,19.21
2024-05-09T06:43:18.536Z,19.29
2024-05-09T06:43:50.560Z,19.34
2024-05-09T06:44:21.836Z,19.37
2024-05-09T06:44:52.640Z,19.39
2024-05-09T06:45:23.453Z,19.41
2024-05-09T06:45:54.244Z,19.44
2024-05-09T06:46:25.574Z,19.51
2024-05-09T06:46:59.529Z,19.40
2024-05-09T06:47:30.957Z,19.53
2024-05-09T06:48:02.014Z,19.63
2024-05-09T06:48:33.164Z,19.66
2024-05-09T06:49:07.253Z,19.72
2024-05-09T06:49:40.118Z,19.76